DRRC weather

Dogondoutchi Airport
Dogondoutchi, Dosso Region, Niger

Public forecast

Using degrees Celsius for public forecast. Weather courtesy of forecast.io.

METAR (pilot weather report)

Report is more than 6 hours old.

Closest report is Birni-N'Konni Airport, 67.1 nm (124.3 km) E. Retrieved 2019/04/08 18:00 UTC (14 days ago):

DRRB 081800Z 26004KT CAVOK 39/09 Q////

TAF (pilot weather forecast)

Closest forecast is Sadiq Abubakar III International Airport, 78.8 nm (146.0 km) SE. Retrieved 2019/04/22 12:21 UTC (5 hours ago):

TAF DNSO 220950Z 2212/2318 20010KT CAVOK